createdAt,value
2023-05-05T00:04:42.280Z,1.90
2023-05-05T00:09:44.504Z,1.95
2023-05-05T00:14:46.259Z,2.10
2023-05-05T00:19:47.985Z,2.30
2023-05-05T00:24:49.754Z,2.05
2023-05-05T00:29:51.488Z,1.80
2023-05-05T00:34:53.967Z,2.28
2023-05-05T00:39:55.872Z,1.75
2023-05-05T00:44:58.986Z,2.05
2023-05-05T00:50:00.844Z,1.95
2023-05-05T00:55:03.148Z,1.80
2023-05-05T01:00:06.204Z,1.80
2023-05-05T01:05:10.317Z,2.55
2023-05-05T01:10:36.272Z,1.77
2023-05-05T01:15:44.950Z,2.53
2023-05-05T01:21:00.540Z,1.85
2023-05-05T01:26:29.910Z,2.15
2023-05-05T01:31:52.460Z,2.30
2023-05-05T01:37:07.598Z,2.13
2023-05-05T01:42:15.112Z,1.65
2023-05-05T01:47:19.666Z,2.33
2023-05-05T01:52:23.934Z,2.00
2023-05-05T01:57:29.538Z,1.95
2023-05-05T02:02:35.035Z,2.13
2023-05-05T02:07:37.277Z,1.90
2023-05-05T02:12:41.264Z,2.55
2023-05-05T02:17:44.379Z,2.05
2023-05-05T02:22:46.663Z,1.75
2023-05-05T02:27:50.006Z,2.03
2023-05-05T02:33:00.351Z,1.65
2023-05-05T02:38:05.713Z,1.58
2023-05-05T02:43:41.561Z,1.57
2023-05-05T02:48:44.955Z,1.55
2023-05-05T02:53:47.222Z,1.92
2023-05-05T02:58:54.522Z,1.55
2023-05-05T03:04:04.808Z,1.70
2023-05-05T03:09:14.252Z,1.60
2023-05-05T03:14:21.579Z,2.33
2023-05-05T03:19:26.227Z,2.40
2023-05-05T03:24:33.015Z,2.28
2023-05-05T03:29:39.820Z,2.17
2023-05-05T03:34:46.319Z,1.70
2023-05-05T03:39:48.165Z,2.10
2023-05-05T03:44:53.644Z,2.20
2023-05-05T03:49:57.138Z,1.90
2023-05-05T03:55:00.210Z,1.67
2023-05-05T04:00:02.690Z,1.90
2023-05-05T04:05:05.184Z,1.67
2023-05-05T04:10:08.655Z,1.70
2023-05-05T04:15:10.912Z,1.70
2023-05-05T04:20:13.170Z,1.85
2023-05-05T04:25:15.923Z,2.05
2023-05-05T04:30:20.575Z,2.20
2023-05-05T04:35:22.511Z,2.00
2023-05-05T04:40:26.832Z,1.70
2023-05-05T04:45:29.997Z,1.38
2023-05-05T04:50:32.608Z,2.50
2023-05-05T04:55:35.071Z,2.08
2023-05-05T05:00:39.634Z,1.67
2023-05-05T05:05:41.499Z,2.20
2023-05-05T05:10:43.957Z,1.90
2023-05-05T05:15:45.930Z,1.73
2023-05-05T05:20:47.746Z,2.47
2023-05-05T05:25:50.812Z,1.75
2023-05-05T05:30:54.929Z,1.83
2023-05-05T05:35:57.118Z,2.35
2023-05-05T05:40:59.120Z,2.75
2023-05-05T05:46:01.226Z,2.88
2023-05-05T05:51:04.300Z,2.88
2023-05-05T05:56:06.642Z,2.22
2023-05-05T06:01:08.448Z,2.75
2023-05-05T06:06:10.708Z,2.55
2023-05-05T06:11:12.657Z,2.05
2023-05-05T06:16:14.652Z,2.55
2023-05-05T06:21:20.699Z,2.53
2023-05-05T06:26:22.726Z,0.10
2023-05-05T06:31:24.560Z,2.17
2023-05-05T06:36:26.383Z,2.80
2023-05-05T06:41:28.117Z,2.85
2023-05-05T06:46:29.926Z,2.72
2023-05-05T06:51:32.213Z,2.38
2023-05-05T06:56:33.958Z,3.00
2023-05-05T07:01:36.030Z,2.80
2023-05-05T07:06:40.772Z,1.88
2023-05-05T07:11:42.627Z,2.08
2023-05-05T07:16:44.441Z,3.38
2023-05-05T07:21:47.320Z,2.75
2023-05-05T07:26:49.120Z,3.15
2023-05-05T07:31:51.049Z,2.95
2023-05-05T07:36:52.829Z,2.70
2023-05-05T07:41:54.627Z,2.78
2023-05-05T07:46:56.400Z,3.00
2023-05-05T07:51:58.999Z,2.92
2023-05-05T07:57:01.885Z,3.30
2023-05-05T08:02:03.661Z,3.65
2023-05-05T08:07:05.397Z,3.50
2023-05-05T08:12:09.003Z,3.50
2023-05-05T08:17:12.295Z,3.58
2023-05-05T08:22:14.182Z,3.25
2023-05-05T08:27:15.932Z,3.15
2023-05-05T08:32:17.984Z,2.92
2023-05-05T08:37:19.720Z,3.38
2023-05-05T08:42:35.509Z,3.05
2023-05-05T08:47:39.561Z,3.20
2023-05-05T08:52:45.929Z,3.08
2023-05-05T08:57:58.181Z,3.35
2023-05-05T09:03:01.783Z,3.78
2023-05-05T09:08:06.957Z,4.00
2023-05-05T09:13:08.927Z,4.10
2023-05-05T09:18:12.467Z,3.75
2023-05-05T09:23:20.515Z,4.07
2023-05-05T09:28:22.335Z,4.28
2023-05-05T09:33:31.341Z,3.75
2023-05-05T09:38:34.872Z,3.20
2023-05-05T09:43:52.499Z,3.88
2023-05-05T09:48:54.561Z,4.00
2023-05-05T09:53:56.985Z,3.70
2023-05-05T09:59:08.948Z,3.55
2023-05-05T10:04:28.564Z,3.08
2023-05-05T10:09:33.776Z,2.58
2023-05-05T10:14:36.134Z,3.42
2023-05-05T10:19:39.398Z,3.30
2023-05-05T10:24:51.039Z,3.65
2023-05-05T10:30:06.904Z,3.58
2023-05-05T10:35:11.375Z,2.67
2023-05-05T10:40:15.971Z,3.08
2023-05-05T10:45:18.008Z,2.60
2023-05-05T10:50:38.717Z,2.75
2023-05-05T10:56:06.902Z,2.55
2023-05-05T11:01:09.405Z,1.85
2023-05-05T11:06:12.631Z,2.15
2023-05-05T11:11:14.628Z,2.10
2023-05-05T11:16:47.714Z,1.90
2023-05-05T11:22:02.321Z,2.00
2023-05-05T11:27:04.113Z,2.10
2023-05-05T11:32:14.037Z,2.20
2023-05-05T11:37:16.804Z,2.10
2023-05-05T11:42:26.180Z,1.90
2023-05-05T11:47:29.554Z,2.20
2023-05-05T11:52:31.455Z,1.67
2023-05-05T11:57:36.423Z,2.00
2023-05-05T12:02:39.053Z,2.00
2023-05-05T12:07:40.991Z,1.40
2023-05-05T12:12:42.809Z,1.67
2023-05-05T12:17:47.997Z,1.60
2023-05-05T12:22:49.913Z,1.77
2023-05-05T12:27:56.123Z,1.80
2023-05-05T12:33:06.924Z,1.90
2023-05-05T12:38:08.774Z,1.90
2023-05-05T12:43:23.705Z,1.73
2023-05-05T12:48:25.809Z,1.63
2023-05-05T12:53:28.015Z,2.03
2023-05-05T12:58:32.675Z,1.70
2023-05-05T13:03:34.515Z,1.67
2023-05-05T13:08:43.396Z,2.03
2023-05-05T13:13:46.282Z,1.65
2023-05-05T13:18:49.980Z,1.98
2023-05-05T13:23:51.782Z,1.85
2023-05-05T13:28:53.894Z,1.75
2023-05-05T13:33:56.130Z,1.55
2023-05-05T13:38:58.036Z,1.42
2023-05-05T13:43:59.800Z,1.40
2023-05-05T13:49:01.591Z,1.50
2023-05-05T13:54:03.942Z,1.60
2023-05-05T13:59:09.416Z,1.65
2023-05-05T14:04:11.240Z,1.70
2023-05-05T14:09:13.382Z,1.45
2023-05-05T14:14:15.181Z,1.75
2023-05-05T14:19:17.047Z,1.35
2023-05-05T14:24:18.757Z,1.50
2023-05-05T14:29:20.527Z,1.70
2023-05-05T14:34:22.260Z,1.40
2023-05-05T14:39:24.068Z,1.58
2023-05-05T14:44:25.923Z,1.45
2023-05-05T14:49:27.707Z,1.23
2023-05-05T14:54:29.486Z,1.42
2023-05-05T14:59:31.471Z,1.60
2023-05-05T15:04:33.262Z,1.65
2023-05-05T15:09:35.026Z,1.58
2023-05-05T15:14:38.169Z,1.70
2023-05-05T15:19:40.073Z,1.50
2023-05-05T15:24:41.931Z,1.88
2023-05-05T15:29:43.657Z,1.60
2023-05-05T15:34:46.119Z,1.50
2023-05-05T15:39:50.481Z,1.75
2023-05-05T15:44:52.617Z,1.33
2023-05-05T15:49:54.378Z,1.50
2023-05-05T15:54:56.334Z,1.42
2023-05-05T15:59:58.239Z,1.83
2023-05-05T16:05:00.416Z,1.85
2023-05-05T16:10:02.624Z,2.13
2023-05-05T16:15:06.146Z,1.50
2023-05-05T16:20:15.906Z,1.63
2023-05-05T16:25:20.827Z,1.70
2023-05-05T16:30:24.199Z,1.85
2023-05-05T16:35:25.980Z,1.45
2023-05-05T16:40:30.101Z,1.80
2023-05-05T16:45:31.947Z,1.77
2023-05-05T16:50:33.954Z,1.63
2023-05-05T16:55:36.115Z,1.52
2023-05-05T17:00:40.767Z,1.42
2023-05-05T17:05:43.828Z,1.35
2023-05-05T17:10:46.265Z,1.48
2023-05-05T17:15:48.091Z,1.50
2023-05-05T17:20:50.245Z,1.27
2023-05-05T17:25:51.983Z,1.90
2023-05-05T17:30:53.854Z,1.55
2023-05-05T17:35:55.654Z,2.00
2023-05-05T17:40:57.372Z,2.60
2023-05-05T17:45:59.099Z,1.90
2023-05-05T17:51:01.009Z,1.60
2023-05-05T17:56:02.866Z,1.92
2023-05-05T18:01:04.638Z,1.67
2023-05-05T18:06:06.412Z,1.60
2023-05-05T18:11:08.433Z,1.85
2023-05-05T18:16:10.156Z,1.52
2023-05-05T18:21:12.387Z,1.90
2023-05-05T18:26:16.109Z,1.67
2023-05-05T18:31:17.936Z,1.85
2023-05-05T18:36:19.684Z,1.60
2023-05-05T18:41:21.432Z,1.83
2023-05-05T18:46:23.187Z,1.80
2023-05-05T18:51:25.073Z,1.55
2023-05-05T18:56:27.166Z,1.63
2023-05-05T19:01:28.932Z,1.77
2023-05-05T19:06:31.053Z,2.10
2023-05-05T19:11:32.772Z,2.25
2023-05-05T19:16:34.596Z,1.90
2023-05-05T19:21:36.529Z,1.85
2023-05-05T19:26:38.326Z,1.92
2023-05-05T19:31:40.188Z,1.88
2023-05-05T19:36:41.913Z,2.00
2023-05-05T19:41:43.633Z,1.95
2023-05-05T19:46:45.384Z,1.88
2023-05-05T19:51:49.813Z,2.20
2023-05-05T19:56:51.879Z,2.28
2023-05-05T20:01:53.681Z,2.00
2023-05-05T20:06:55.798Z,2.22
2023-05-05T20:11:58.782Z,1.88
2023-05-05T20:17:00.519Z,2.50
2023-05-05T20:22:02.309Z,2.05
2023-05-05T20:27:05.745Z,1.98
2023-05-05T20:32:07.532Z,2.10
2023-05-05T20:37:10.610Z,1.92
2023-05-05T20:42:13.513Z,1.73
2023-05-05T20:47:15.432Z,1.65
2023-05-05T20:52:17.621Z,2.10
2023-05-05T20:57:19.406Z,2.50
2023-05-05T21:02:21.171Z,2.10
2023-05-05T21:07:22.897Z,1.90
2023-05-05T21:12:24.624Z,1.85
2023-05-05T21:17:27.079Z,2.40
2023-05-05T21:22:28.807Z,1.73
2023-05-05T21:27:30.707Z,2.15
2023-05-05T21:32:32.447Z,2.20
2023-05-05T21:37:38.846Z,2.22
2023-05-05T21:42:41.884Z,2.58
2023-05-05T21:47:43.622Z,2.25
2023-05-05T21:52:46.239Z,2.38
2023-05-05T21:57:47.981Z,2.13
2023-05-05T22:02:49.800Z,2.28
2023-05-05T22:07:51.526Z,2.28
2023-05-05T22:12:53.486Z,2.33
2023-05-05T22:17:55.282Z,2.70
2023-05-05T22:22:58.096Z,2.15
2023-05-05T22:27:59.850Z,2.30
2023-05-05T22:33:01.663Z,3.50
2023-05-05T22:38:03.709Z,2.85
2023-05-05T22:43:05.584Z,2.17
2023-05-05T22:48:07.407Z,2.10
2023-05-05T22:53:09.177Z,2.10
2023-05-05T22:58:10.891Z,2.00
2023-05-05T23:03:12.709Z,2.10
2023-05-05T23:08:14.526Z,2.70
2023-05-05T23:13:16.337Z,2.20
2023-05-05T23:18:18.112Z,2.20
2023-05-05T23:23:22.142Z,2.03
2023-05-05T23:28:24.110Z,2.20
2023-05-05T23:33:25.841Z,2.50
2023-05-05T23:38:27.565Z,2.20
2023-05-05T23:43:29.475Z,2.08
2023-05-05T23:48:31.207Z,2.50
2023-05-05T23:53:33.020Z,2.25
2023-05-05T23:58:34.856Z,2.58
